WB7CYS Weather Reports


Display with metric or nautical units.
time (UTC)temp
F
wind
direction
speed
MPH
gust
MPH
rain 1hr
in
rain 24hr
in
rain mn
in
humidity
%
barometer
mb
20210128021551 46 143 19.0 42.0 0.00 0.00 0.00 55 1002.8
20210128014558 46 131 28.0 42.0 0.00 0.00 0.00 56 1002.7
20210128013114 47 129 24.0 35.0 0.00 0.00 0.00 53 1003.1
20210128011653 47 139 21.0 33.0 0.00 0.00 0.00 51 1003.0
20210128010215 47 129 20.0 30.0 0.00 0.00 0.00 55 1003.0
20210128004650 47 135 20.0 34.0 0.00 0.00 0.00 53 1003.1
20210128003107 47 140 23.0 32.0 0.00 0.00 0.00 53 1003.0
20210128001624 47 116 25.0 32.0 0.00 0.00 0.00 54 1002.5
20210128000135 48 138 25.0 33.0 0.00 0.00 0.00 51 1002.8
20210127234554 47 135 24.0 32.0 0.00 0.00 0.00 53 1002.9
20210127233046 47 142 17.0 29.0 0.00 0.00 0.00 54 1003.1
20210127231544 48 134 15.0 21.0 0.00 0.00 0.00 53 1003.1
20210127230031 49 134 13.0 20.0 0.00 0.00 0.00 52 1003.3
20210127224536 48 115 14.0 22.0 0.00 0.02 0.00 53 1003.4
20210127223058 48 146 19.0 24.0 0.00 0.02 0.00 52 1003.3
20210127221539 48 164 15.0 22.0 0.00 0.02 0.00 51 1003.4
20210127220109 49 127 18.0 22.0 0.00 0.02 0.00 50 1003.2
20210127214556 47 188 11.0 17.0 0.00 0.04 0.00 51 1003.2
20210127213023 45 111 11.0 20.0 0.00 0.04 0.00 56 1003.2
20210127211523 46 129 17.0 23.0 0.00 0.04 0.00 53 1003.3
20210127210029 46 150 9.0 16.0 0.00 0.04 0.00 50 1003.3
20210127204527 46 97 6.0 11.0 0.00 0.05 0.00 52 1003.4
20210127203023 46 75 2.0 10.0 0.00 0.05 0.00 51 1003.4
20210127201522 46 58 6.0 11.0 0.00 0.05 0.00 50 1003.2
20210127200147 45 72 9.0 17.0 0.00 0.05 0.00 52 1003.2
20210127194526 45 85 11.0 18.0 0.00 0.05 0.00 53 1003.4
20210127193049 44 141 16.0 23.0 0.00 0.05 0.00 54 1003.2
20210127191608 46 129 17.0 26.0 0.00 0.05 0.00 51 1003.4
20210127190033 46 139 18.0 29.0 0.00 0.05 0.00 50 1003.4
20210127183216 46 125 15.0 26.0 0.00 0.05 0.00 51 1003.4
20210127181653 45 131 18.0 32.0 0.00 0.05 0.00 49 1003.3
20210127180209 45 135 23.0 36.0 0.00 0.05 0.00 49 1003.1
20210127174725 43 132 21.0 35.0 0.00 0.05 0.00 51 1002.9
20210127173220 43 136 28.0 38.0 0.00 0.05 0.00 51 1002.5
20210127171657 42 132 26.0 40.0 0.00 0.05 0.00 54 1001.9
20210127170121 42 138 32.0 41.0 0.00 0.05 0.00 54 1001.7
20210127164657 42 144 27.0 40.0 0.00 0.05 0.00 54 1001.6
20210127163144 42 145 25.0 43.0 0.00 0.05 0.00 54 1001.3
20210127161612 0 0.0 0.0 0.00 0.05 0.00 1001.2
20210127160106 0 0.0 0.0 0.00 0.05 0.00 1001.0
20210127154612 0 0.0 0.0 0.00 0.05 0.00 1000.2
20210127153049 0 0.0 0.0 0.00 0.05 0.00 1000.3
20210127151557 0 0.0 0.0 0.00 0.05 0.00 999.5
20210127150033 0 0.0 0.0 0.00 0.05 0.00 999.2
20210127144520 0 0.0 0.0 0.00 0.05 0.00 999.4
20210127143035 0 0.0 0.0 0.00 0.05 0.00 998.7
20210127140159 0 0.0 0.0 0.00 0.05 0.00 998.1
20210127134635 0 0.0 0.0 0.00 0.05 0.00 997.8
20210127133129 0 0.0 0.0 0.00 0.05 0.00 997.9
20210127131547 0 0.0 0.0 0.00 0.05 0.00 998.1
20210127130119 0 0.0 0.0 0.00 0.05 0.00 998.1
20210127124618 0 0.0 0.0 0.00 0.05 0.00 997.9
20210127123107 0 0.0 0.0 0.00 0.05 0.00 997.9
20210127121553 0 0.0 0.0 0.00 0.05 0.00 998.0
20210127120043 0 0.0 0.0 0.00 0.05 0.00 998.6
20210127114547 0 0.0 0.0 0.00 0.05 0.00 998.6
20210127113036 0 0.0 0.0 0.00 0.05 0.00 998.9
20210127111552 0 0.0 0.0 0.00 0.05 0.00 999.4
20210127110026 40 136 32.0 48.0 0.00 0.05 0.00 57 999.2
20210127104522 40 139 34.0 51.0 0.00 0.05 0.00 57 999.6
20210127103026 39 120 33.0 49.0 0.00 0.05 0.00 58 999.4
20210127101513 39 129 33.0 45.0 0.00 0.05 0.00 59 999.6
20210127100024 39 119 34.0 50.0 0.00 0.05 0.00 60 999.6
20210127094612 39 115 40.0 53.0 0.00 0.05 0.00 60 999.2
20210127093156 40 129 33.0 47.0 0.00 0.05 0.00 57 999.8
20210127091700 39 131 28.0 45.0 0.00 0.05 0.00 58 1000.2
20210127090122 39 127 37.0 48.0 0.00 0.05 0.00 59 1000.2
20210127084637 39 123 40.0 52.0 0.00 0.05 0.00 61 1000.1
20210127083237 39 127 35.0 47.0 0.00 0.05 0.00 60 1000.0
20210127081619 39 146 38.0 52.0 0.00 0.05 0.00 59 1000.3
20210127080206 39 143 27.0 47.0 0.00 0.05 0.00 60 1001.0
20210127074625 40 129 36.0 48.0 0.00 0.05 0.05 57 1000.6
20210127073227 40 137 30.0 40.0 0.00 0.05 0.05 59 1001.1
20210127071707 40 132 30.0 49.0 0.00 0.05 0.05 57 1001.3
20210127070104 40 131 31.0 49.0 0.00 0.05 0.05 57 1001.4
20210127064614 40 128 40.0 52.0 0.00 0.05 0.05 58 1000.7
20210127063112 39 131 40.0 57.0 0.00 0.05 0.05 61 1000.3
20210127061550 38 135 30.0 45.0 0.00 0.05 0.05 64 1001.5
20210127060122 39 123 38.0 48.0 0.00 0.05 0.05 62 1001.4
20210127054621 39 137 37.0 55.0 0.00 0.05 0.05 64 1001.2
20210127053054 39 141 39.0 49.0 0.00 0.05 0.05 57 1001.3
20210127051605 39 131 33.0 43.0 0.00 0.05 0.05 56 1001.3
20210127050140 39 129 30.0 46.0 0.00 0.05 0.05 57 1001.6
20210127044608 39 136 29.0 44.0 0.00 0.05 0.05 59 1001.3
20210127043127 39 132 31.0 46.0 0.00 0.05 0.05 58 1001.1
20210127041628 39 128 34.0 49.0 0.00 0.05 0.05 57 1001.2
20210127040118 39 131 36.0 51.0 0.00 0.05 0.05 57 1000.9
20210127034608 39 118 35.0 50.0 0.00 0.05 0.05 58 1001.1
20210127033118 39 133 46.0 56.0 0.00 0.05 0.05 57 1000.6
20210127031549 39 127 39.0 54.0 0.00 0.05 0.05 58 1000.9
20210127030135 38 128 35.0 56.0 0.00 0.05 0.05 58 1000.9
20210127024701 38 148 37.0 56.0 0.00 0.05 0.05 58 1000.9
20210127023105 38 135 39.0 54.0 0.00 0.05 0.05 58 1000.7